sensor_id;sensor_type;location;lat;lon;timestamp;P1;durP1;ratioP1;P2;durP2;ratioP2
41167;SDS011;26906;45.658;9.272;2023-01-29T12:39:00;22.40;;;13.57;;
41167;SDS011;26906;45.658;9.272;2023-01-29T12:44:20;22.35;;;14.80;;
41167;SDS011;26906;45.658;9.272;2023-01-29T12:49:32;19.67;;;12.30;;
41167;SDS011;26906;45.658;9.272;2023-01-29T12:54:35;23.25;;;13.18;;
41167;SDS011;26906;45.658;9.272;2023-01-29T12:57:09;21.13;;;13.48;;
41167;SDS011;26906;45.658;9.272;2023-01-29T12:59:59;19.52;;;12.60;;
41167;SDS011;26906;45.658;9.272;2023-01-29T13:05:19;19.88;;;13.38;;
41167;SDS011;26906;45.658;9.272;2023-01-29T13:07:49;22.65;;;13.65;;
41167;SDS011;26906;45.658;9.272;2023-01-29T13:10:20;22.17;;;14.43;;
41167;SDS011;26906;45.658;9.272;2023-01-29T13:13:05;21.10;;;13.55;;
41167;SDS011;26906;45.658;9.272;2023-01-29T13:15:43;21.40;;;13.50;;
41167;SDS011;26906;45.658;9.272;2023-01-29T13:20:50;23.00;;;14.13;;
41167;SDS011;26906;45.658;9.272;2023-01-29T13:23:20;20.65;;;14.43;;
41167;SDS011;26906;45.658;9.272;2023-01-29T13:28:26;23.85;;;13.98;;
41167;SDS011;26906;45.658;9.272;2023-01-29T13:34:04;20.80;;;13.30;;
41167;SDS011;26906;45.658;9.272;2023-01-29T13:36:40;23.60;;;15.27;;
41167;SDS011;26906;45.658;9.272;2023-01-29T13:39:29;25.90;;;14.63;;
41167;SDS011;26906;45.658;9.272;2023-01-29T13:42:01;25.02;;;14.60;;
41167;SDS011;26906;45.658;9.272;2023-01-29T13:44:40;23.67;;;14.70;;
41167;SDS011;26906;45.658;9.272;2023-01-29T13:47:20;20.55;;;14.60;;
41167;SDS011;26906;45.658;9.272;2023-01-29T13:49:56;26.83;;;15.05;;
41167;SDS011;26906;45.658;9.272;2023-01-29T13:52:36;23.08;;;14.75;;
41167;SDS011;26906;45.658;9.272;2023-01-29T13:55:08;25.13;;;15.57;;
41167;SDS011;26906;45.658;9.272;2023-01-29T13:58:07;21.17;;;14.07;;
41167;SDS011;26906;45.658;9.272;2023-01-29T14:05:37;21.63;;;14.70;;
41167;SDS011;26906;45.658;9.272;2023-01-29T14:10:39;22.00;;;14.73;;
41167;SDS011;26906;45.658;9.272;2023-01-29T14:15:44;23.98;;;15.98;;
41167;SDS011;26906;45.658;9.272;2023-01-29T14:18:33;29.38;;;16.95;;
41167;SDS011;26906;45.658;9.272;2023-01-29T14:23:51;23.85;;;15.68;;
41167;SDS011;26906;45.658;9.272;2023-01-29T14:29:35;23.08;;;15.32;;
41167;SDS011;26906;45.658;9.272;2023-01-29T14:34:15;25.65;;;15.73;;
41167;SDS011;26906;45.658;9.272;2023-01-29T14:37:39;25.65;;;17.02;;
41167;SDS011;26906;45.658;9.272;2023-01-29T14:39:53;25.90;;;16.77;;
41167;SDS011;26906;45.658;9.272;2023-01-29T14:50:00;24.08;;;16.08;;
41167;SDS011;26906;45.658;9.272;2023-01-29T14:52:38;24.50;;;15.50;;
41167;SDS011;26906;45.658;9.272;2023-01-29T14:55:07;25.27;;;15.23;;
41167;SDS011;26906;45.658;9.272;2023-01-29T14:57:49;23.55;;;15.85;;
41167;SDS011;26906;45.658;9.272;2023-01-29T15:00:21;23.65;;;15.88;;
41167;SDS011;26906;45.658;9.272;2023-01-29T15:02:53;26.50;;;16.75;;
41167;SDS011;26906;45.658;9.272;2023-01-29T15:05:31;25.67;;;16.58;;
41167;SDS011;26906;45.658;9.272;2023-01-29T15:13:14;25.88;;;16.95;;
41167;SDS011;26906;45.658;9.272;2023-01-29T15:15:53;25.30;;;16.35;;
41167;SDS011;26906;45.658;9.272;2023-01-29T15:18:39;26.25;;;16.38;;
41167;SDS011;26906;45.658;9.272;2023-01-29T15:23:36;28.33;;;16.45;;
41167;SDS011;26906;45.658;9.272;2023-01-29T15:26:05;28.60;;;16.92;;
41167;SDS011;26906;45.658;9.272;2023-01-29T15:28:33;28.77;;;16.35;;
41167;SDS011;26906;45.658;9.272;2023-01-29T15:31:07;25.25;;;16.80;;
41167;SDS011;26906;45.658;9.272;2023-01-29T15:33:37;26.10;;;16.48;;
41167;SDS011;26906;45.658;9.272;2023-01-29T15:36:16;26.58;;;16.25;;
41167;SDS011;26906;45.658;9.272;2023-01-29T15:38:45;31.52;;;16.42;;
41167;SDS011;26906;45.658;9.272;2023-01-29T15:41:17;22.42;;;15.73;;
41167;SDS011;26906;45.658;9.272;2023-01-29T15:43:46;27.10;;;15.73;;
41167;SDS011;26906;45.658;9.272;2023-01-29T15:46:47;28.65;;;16.40;;
41167;SDS011;26906;45.658;9.272;2023-01-29T15:49:29;24.63;;;15.60;;
41167;SDS011;26906;45.658;9.272;2023-01-29T15:52:00;24.25;;;16.08;;
41167;SDS011;26906;45.658;9.272;2023-01-29T15:54:30;31.77;;;17.58;;
41167;SDS011;26906;45.658;9.272;2023-01-29T15:56:57;24.95;;;16.50;;
41167;SDS011;26906;45.658;9.272;2023-01-29T15:59:25;27.52;;;16.20;;
41167;SDS011;26906;45.658;9.272;2023-01-29T16:01:55;26.77;;;15.95;;
41167;SDS011;26906;45.658;9.272;2023-01-29T16:04:25;26.35;;;16.88;;
41167;SDS011;26906;45.658;9.272;2023-01-29T16:06:57;27.88;;;16.35;;
41167;SDS011;26906;45.658;9.272;2023-01-29T16:09:24;25.08;;;16.63;;
41167;SDS011;26906;45.658;9.272;2023-01-29T16:11:52;30.02;;;16.77;;
41167;SDS011;26906;45.658;9.272;2023-01-29T16:14:20;25.67;;;16.95;;
41167;SDS011;26906;45.658;9.272;2023-01-29T16:16:51;26.33;;;16.55;;
41167;SDS011;26906;45.658;9.272;2023-01-29T16:19:27;27.85;;;16.45;;
41167;SDS011;26906;45.658;9.272;2023-01-29T16:22:00;27.33;;;16.55;;
41167;SDS011;26906;45.658;9.272;2023-01-29T16:24:29;28.35;;;16.67;;
41167;SDS011;26906;45.658;9.272;2023-01-29T16:26:57;27.55;;;17.17;;
41167;SDS011;26906;45.658;9.272;2023-01-29T16:29:29;28.55;;;17.20;;
41167;SDS011;26906;45.658;9.272;2023-01-29T16:31:56;27.65;;;17.90;;
41167;SDS011;26906;45.658;9.272;2023-01-29T16:34:33;29.05;;;16.88;;
41167;SDS011;26906;45.658;9.272;2023-01-29T16:37:02;30.27;;;18.17;;
41167;SDS011;26906;45.658;9.272;2023-01-29T16:39:35;28.02;;;17.42;;
41167;SDS011;26906;45.658;9.272;2023-01-29T16:44:38;29.55;;;17.50;;
41167;SDS011;26906;45.658;9.272;2023-01-29T16:47:25;34.92;;;17.83;;
41167;SDS011;26906;45.658;9.272;2023-01-29T16:52:35;37.10;;;22.13;;
41167;SDS011;26906;45.658;9.272;2023-01-29T16:57:36;34.83;;;18.83;;
41167;SDS011;26906;45.658;9.272;2023-01-29T17:00:10;29.52;;;18.27;;
41167;SDS011;26906;45.658;9.272;2023-01-29T17:02:43;33.17;;;18.05;;
41167;SDS011;26906;45.658;9.272;2023-01-29T17:05:15;33.63;;;18.33;;
41167;SDS011;26906;45.658;9.272;2023-01-29T17:07:56;34.13;;;18.40;;
41167;SDS011;26906;45.658;9.272;2023-01-29T17:10:23;32.05;;;17.33;;
41167;SDS011;26906;45.658;9.272;2023-01-29T17:12:55;31.02;;;17.48;;
41167;SDS011;26906;45.658;9.272;2023-01-29T17:15:33;37.05;;;18.63;;
41167;SDS011;26906;45.658;9.272;2023-01-29T17:18:00;33.72;;;18.10;;
41167;SDS011;26906;45.658;9.272;2023-01-29T17:20:26;30.42;;;18.38;;
41167;SDS011;26906;45.658;9.272;2023-01-29T17:22:52;31.38;;;18.10;;
41167;SDS011;26906;45.658;9.272;2023-01-29T17:25:17;30.52;;;17.95;;
41167;SDS011;26906;45.658;9.272;2023-01-29T17:27:45;32.33;;;20.20;;
41167;SDS011;26906;45.658;9.272;2023-01-29T17:30:19;34.67;;;20.85;;
41167;SDS011;26906;45.658;9.272;2023-01-29T17:32:55;33.03;;;21.17;;
41167;SDS011;26906;45.658;9.272;2023-01-29T17:35:20;36.97;;;20.83;;
41167;SDS011;26906;45.658;9.272;2023-01-29T17:37:46;34.38;;;20.55;;
41167;SDS011;26906;45.658;9.272;2023-01-29T17:40:28;34.25;;;20.95;;
41167;SDS011;26906;45.658;9.272;2023-01-29T17:43:17;38.08;;;21.63;;
41167;SDS011;26906;45.658;9.272;2023-01-29T17:45:43;36.13;;;21.75;;
41167;SDS011;26906;45.658;9.272;2023-01-29T17:48:14;37.28;;;24.45;;
41167;SDS011;26906;45.658;9.272;2023-01-29T17:50:50;54.38;;;32.17;;
41167;SDS011;26906;45.658;9.272;2023-01-29T17:53:23;38.65;;;24.88;;
41167;SDS011;26906;45.658;9.272;2023-01-29T17:55:49;40.00;;;24.02;;
41167;SDS011;26906;45.658;9.272;2023-01-29T18:00:45;53.15;;;28.45;;
41167;SDS011;26906;45.658;9.272;2023-01-29T18:03:11;47.22;;;28.73;;
41167;SDS011;26906;45.658;9.272;2023-01-29T18:05:37;51.53;;;28.83;;
41167;SDS011;26906;45.658;9.272;2023-01-29T18:10:57;51.95;;;30.40;;
41167;SDS011;26906;45.658;9.272;2023-01-29T18:13:23;61.00;;;35.00;;
41167;SDS011;26906;45.658;9.272;2023-01-29T18:15:50;70.10;;;37.60;;
41167;SDS011;26906;45.658;9.272;2023-01-29T18:18:20;60.13;;;39.70;;
41167;SDS011;26906;45.658;9.272;2023-01-29T18:20:47;55.45;;;38.60;;
41167;SDS011;26906;45.658;9.272;2023-01-29T18:23:13;52.38;;;36.28;;
41167;SDS011;26906;45.658;9.272;2023-01-29T18:25:39;44.03;;;30.25;;
41167;SDS011;26906;45.658;9.272;2023-01-29T18:28:05;57.08;;;34.97;;
41167;SDS011;26906;45.658;9.272;2023-01-29T18:30:31;43.72;;;28.80;;
41167;SDS011;26906;45.658;9.272;2023-01-29T18:32:57;49.08;;;28.20;;
41167;SDS011;26906;45.658;9.272;2023-01-29T18:35:23;47.72;;;28.27;;
41167;SDS011;26906;45.658;9.272;2023-01-29T18:37:50;42.38;;;25.02;;
41167;SDS011;26906;45.658;9.272;2023-01-29T18:40:15;42.63;;;25.15;;
41167;SDS011;26906;45.658;9.272;2023-01-29T18:42:42;38.90;;;25.20;;
41167;SDS011;26906;45.658;9.272;2023-01-29T18:45:09;45.30;;;26.02;;
41167;SDS011;26906;45.658;9.272;2023-01-29T18:47:38;41.05;;;24.60;;
41167;SDS011;26906;45.658;9.272;2023-01-29T18:50:04;43.53;;;26.02;;
41167;SDS011;26906;45.658;9.272;2023-01-29T18:52:31;37.20;;;24.92;;
41167;SDS011;26906;45.658;9.272;2023-01-29T18:54:58;41.78;;;23.75;;
41167;SDS011;26906;45.658;9.272;2023-01-29T18:57:25;40.47;;;23.90;;
41167;SDS011;26906;45.658;9.272;2023-01-29T18:59:51;44.65;;;24.85;;
41167;SDS011;26906;45.658;9.272;2023-01-29T19:02:19;74.45;;;37.40;;
41167;SDS011;26906;45.658;9.272;2023-01-29T19:04:45;54.65;;;32.90;;
41167;SDS011;26906;45.658;9.272;2023-01-29T19:07:12;51.25;;;31.55;;
41167;SDS011;26906;45.658;9.272;2023-01-29T19:09:38;42.45;;;25.17;;
41167;SDS011;26906;45.658;9.272;2023-01-29T19:12:05;42.17;;;25.48;;
41167;SDS011;26906;45.658;9.272;2023-01-29T19:14:31;47.58;;;27.63;;
41167;SDS011;26906;45.658;9.272;2023-01-29T19:16:59;52.28;;;30.13;;
41167;SDS011;26906;45.658;9.272;2023-01-29T19:19:26;44.08;;;26.85;;
41167;SDS011;26906;45.658;9.272;2023-01-29T19:21:52;43.45;;;26.60;;
41167;SDS011;26906;45.658;9.272;2023-01-29T19:24:18;47.78;;;27.77;;
41167;SDS011;26906;45.658;9.272;2023-01-29T19:26:44;46.42;;;28.35;;
41167;SDS011;26906;45.658;9.272;2023-01-29T19:29:10;45.53;;;28.52;;
41167;SDS011;26906;45.658;9.272;2023-01-29T19:31:36;43.17;;;27.42;;
41167;SDS011;26906;45.658;9.272;2023-01-29T19:34:02;50.72;;;27.15;;
41167;SDS011;26906;45.658;9.272;2023-01-29T19:36:27;43.25;;;27.02;;
41167;SDS011;26906;45.658;9.272;2023-01-29T19:38:53;45.90;;;27.98;;
41167;SDS011;26906;45.658;9.272;2023-01-29T19:41:19;47.05;;;27.13;;
41167;SDS011;26906;45.658;9.272;2023-01-29T19:43:44;44.35;;;27.50;;
41167;SDS011;26906;45.658;9.272;2023-01-29T19:46:12;53.03;;;29.90;;
41167;SDS011;26906;45.658;9.272;2023-01-29T19:48:38;45.30;;;28.67;;
41167;SDS011;26906;45.658;9.272;2023-01-29T19:51:05;45.38;;;24.67;;
41167;SDS011;26906;45.658;9.272;2023-01-29T19:53:33;41.67;;;24.95;;
41167;SDS011;26906;45.658;9.272;2023-01-29T19:56:00;39.50;;;23.60;;
41167;SDS011;26906;45.658;9.272;2023-01-29T19:58:34;34.72;;;21.33;;
41167;SDS011;26906;45.658;9.272;2023-01-29T20:01:02;38.97;;;24.30;;
41167;SDS011;26906;45.658;9.272;2023-01-29T20:03:36;35.40;;;22.25;;
41167;SDS011;26906;45.658;9.272;2023-01-29T20:06:08;39.53;;;24.05;;
41167;SDS011;26906;45.658;9.272;2023-01-29T20:08:35;110.82;;;46.10;;
41167;SDS011;26906;45.658;9.272;2023-01-29T20:11:01;98.68;;;41.70;;
41167;SDS011;26906;45.658;9.272;2023-01-29T20:13:27;74.15;;;35.22;;
41167;SDS011;26906;45.658;9.272;2023-01-29T20:15:54;53.63;;;30.65;;
41167;SDS011;26906;45.658;9.272;2023-01-29T20:18:20;46.05;;;28.55;;
41167;SDS011;26906;45.658;9.272;2023-01-29T20:20:46;48.30;;;27.00;;
41167;SDS011;26906;45.658;9.272;2023-01-29T20:23:14;47.72;;;27.58;;
41167;SDS011;26906;45.658;9.272;2023-01-29T20:25:42;46.10;;;27.23;;
41167;SDS011;26906;45.658;9.272;2023-01-29T20:28:12;48.70;;;27.63;;
41167;SDS011;26906;45.658;9.272;2023-01-29T20:30:39;42.03;;;26.45;;
41167;SDS011;26906;45.658;9.272;2023-01-29T20:33:07;48.15;;;27.20;;
41167;SDS011;26906;45.658;9.272;2023-01-29T20:35:35;45.08;;;27.38;;
41167;SDS011;26906;45.658;9.272;2023-01-29T20:38:02;41.38;;;24.48;;
41167;SDS011;26906;45.658;9.272;2023-01-29T20:40:28;41.55;;;25.23;;
41167;SDS011;26906;45.658;9.272;2023-01-29T20:42:54;41.75;;;25.55;;
41167;SDS011;26906;45.658;9.272;2023-01-29T20:45:20;43.13;;;25.70;;
41167;SDS011;26906;45.658;9.272;2023-01-29T20:47:46;44.05;;;26.92;;
41167;SDS011;26906;45.658;9.272;2023-01-29T20:50:13;47.67;;;27.25;;
41167;SDS011;26906;45.658;9.272;2023-01-29T20:52:42;44.90;;;27.95;;
41167;SDS011;26906;45.658;9.272;2023-01-29T20:55:09;45.22;;;27.30;;
41167;SDS011;26906;45.658;9.272;2023-01-29T20:57:38;43.00;;;27.08;;
41167;SDS011;26906;45.658;9.272;2023-01-29T21:00:04;46.17;;;27.23;;
41167;SDS011;26906;45.658;9.272;2023-01-29T21:02:31;46.72;;;26.98;;
41167;SDS011;26906;45.658;9.272;2023-01-29T21:04:59;47.05;;;27.95;;
41167;SDS011;26906;45.658;9.272;2023-01-29T21:07:24;46.75;;;27.67;;
41167;SDS011;26906;45.658;9.272;2023-01-29T21:09:50;51.95;;;32.25;;
41167;SDS011;26906;45.658;9.272;2023-01-29T21:12:16;47.90;;;30.45;;
41167;SDS011;26906;45.658;9.272;2023-01-29T21:14:42;46.55;;;25.85;;
41167;SDS011;26906;45.658;9.272;2023-01-29T21:17:09;43.42;;;27.38;;
41167;SDS011;26906;45.658;9.272;2023-01-29T21:19:34;48.30;;;28.05;;
41167;SDS011;26906;45.658;9.272;2023-01-29T21:22:00;44.10;;;25.90;;
41167;SDS011;26906;45.658;9.272;2023-01-29T21:24:26;48.47;;;26.90;;
41167;SDS011;26906;45.658;9.272;2023-01-29T21:26:51;48.90;;;27.42;;
41167;SDS011;26906;45.658;9.272;2023-01-29T21:29:20;49.47;;;29.38;;
41167;SDS011;26906;45.658;9.272;2023-01-29T21:31:45;45.70;;;25.63;;
41167;SDS011;26906;45.658;9.272;2023-01-29T21:34:11;47.53;;;26.35;;
